Sonic Adventure (DX): Overall Rankings

Records: Times | Rings | Scores | Races | Bosses | Freestyle
Leaders: Times | Rings | Scores | Races | Bosses | Freestyle | Overall
Rank Player Percent Points Date
1 Sonicspeedruner 98.3% 287 03-25-17
2 Gamepro011 98.2% 304 03-25-17
3 DarkPolarNight 96.2% 638 03-25-17
4 Jawzun 93.5% 1101 03-25-17
5 Dashjump 92.1% 1337 03-25-17
6 DarkspinesSonic 90.2% 1649 03-25-17
7 Avento128bits 89.9% 1700 03-25-17
8 ike6252 89.8% 1716 03-25-17
9 F-Man 88.0% 2036 03-25-17
10 Coolfansonic 87.1% 2179 03-25-17
11 HyperSonic7701 84.6% 2602 03-25-17
12 TheRealShadnic 83.5% 2788 03-25-17
13 yoshifan 82.9% 2900 03-25-17
14 frankoredstrato 82.6% 2941 03-25-17
15 francisco 81.7% 3098 03-25-17
16 Marth 81.4% 3148 03-25-17
17 InferSaime 80.1% 3370 03-25-17
18 PfoSonic 79.7% 3440 03-25-17
19 Paragod 79.3% 3507 03-25-17
20 THC98 78.5% 3636 03-25-17
21 Stefan 76.1% 4057 03-25-17
22 RPGnutter 73.8% 4440 03-25-17
23 bertin 73.7% 4453 03-25-17
24 sonicam 71.6% 4818 03-25-17
25 drminus 70.3% 5034 03-25-17
26 xXMegaManXx 70.3% 5043 03-25-17
27 Combo 65.7% 5826 03-25-17
28 SkyLights 64.5% 6027 03-25-17
29 Diamond 62.5% 6366 03-25-17
30 Auriman1 60.4% 6717 03-25-17
31 GerbilSoft 60.4% 6726 03-25-17
32 OmegaDJ 60.3% 6730 03-25-17
33 chaos shadow 59.9% 6811 03-25-17
34 magnum12 59.5% 6879 03-25-17
35 Thorn 57.3% 7242 03-25-17
36 P1 Pause 57.1% 7276 03-25-17
37 mike89 56.0% 7460 03-25-17
38 Groudon199 54.1% 7793 03-25-17
39 chainchumper 54.1% 7795 03-25-17
39 Dave Cramer 54.1% 7795 03-25-17
41 Parax 53.3% 7925 03-25-17
42 Shadow Jacky 53.0% 7978 03-25-17
43 Psymar 47.8% 8861 03-25-17
44 Arch 47.1% 8983 03-25-17
45 Chao_Fan 46.1% 9144 03-25-17
46 mauserman 45.4% 9267 03-25-17
47 Quartz 45.0% 9328 03-25-17
48 teamblackarms 44.2% 9471 03-25-17
49 Psyknux 43.4% 9610 03-25-17
50 James_Bertolli 43.2% 9646 03-25-17
51 NintenDan 42.8% 9706 03-25-17
52 Webber3000 42.3% 9797 03-25-17
53 Turbos 42.1% 9818 03-25-17
54 Ring Rush 41.8% 9871 03-25-17
55 Cream147 41.7% 9900 03-25-17
56 videogamemaster777 41.6% 9917 03-25-17
57 Fr3nZy 41.5% 9931 03-25-17
58 Siavash Tazari 41.4% 9949 03-25-17
59 buddychaos0415 40.9% 10037 03-25-17
60 SadisticMystic 40.2% 10142 03-25-17
61 eggFL 39.5% 10270 03-25-17
62 Redd 38.7% 10406 03-25-17
63 SB737 37.9% 10538 03-25-17
64 supersonic465 37.1% 10673 03-25-17
65 supersonicfan 36.8% 10723 03-25-17
66 FuzZerd 35.6% 10937 03-25-17
67 Aitamen 35.1% 11015 03-25-17
68 elecmouse101 34.8% 11072 03-25-17
69 danieldude 34.6% 11099 03-25-17
70 Austinf 33.7% 11256 03-25-17
71 metanightmare22 33.5% 11283 03-25-17
72 Cyan Ryan 33.3% 11319 03-25-17
73 dabestgamer 33.1% 11354 03-25-17
74 MiStEr_ShAoLiN 33.0% 11379 03-25-17
75 Andrea Ritsu 32.2% 11515 03-25-17
76 itsPersonnal 31.8% 11572 03-25-17
77 BigAL49 31.8% 11577 03-25-17
78 Cybrax 31.1% 11697 03-25-17
79 SilvertheAlmighty 30.9% 11733 03-25-17
80 Nimrod 29.6% 11949 03-25-17
81 VMU Player Banned 29.0% 12050 03-25-17
82 ethmar 28.7% 12100 03-25-17
83 Staf 28.6% 12113 03-25-17
84 Omega Rafael Santos 28.5% 12141 03-25-17
85 The T 28.2% 12185 03-25-17
86 EngiNerd 28.0% 12222 03-25-17
87 lordmetalsonic 27.4% 12317 03-25-17
88 Hipertails12 27.0% 12391 03-25-17
89 welldooder64 26.9% 12413 03-25-17
90 GreatStar 26.6% 12455 03-25-17
91 The Great Lord Mick 26.5% 12475 03-25-17
92 Sondow 26.4% 12487 03-25-17
93 Mastakirby 26.3% 12505 03-25-17
94 LinksDarkArrows 26.3% 12514 03-25-17
95 Skylace 25.3% 12687 03-25-17
96 a_moustache 24.3% 12846 03-25-17
97 Rolken 23.8% 12938 03-25-17
98 Kogen Player Banned 22.1% 13232 03-25-17
99 Xia 22.0% 13236 03-25-17
100 Spinballwizard 22.0% 13239 03-25-17
101 Twilisailor 21.6% 13311 03-25-17
102 f0rever_zer0 21.6% 13315 03-25-17
103 Don 21.4% 13339 03-25-17
104 Cutiefox 21.3% 13351 03-25-17
105 Game_Complete 21.3% 13353 03-25-17
106 Miles9999 21.2% 13368 03-25-17
107 andres430 20.7% 13454 03-25-17
108 Cruizer 20.4% 13505 03-25-17
109 iSonicKid2K 20.4% 13518 03-25-17
110 SADXTryHard 20.2% 13549 03-25-17
111 GarnetPrincess 19.6% 13640 03-25-17
112 AxlThunder 19.1% 13741 03-25-17
113 knuckles_sonic8 18.6% 13811 03-25-17
114 KinkyCadence 18.3% 13868 03-25-17
115 The Knuckles Chao 18.2% 13878 03-25-17
116 Team_Yoshi 18.0% 13927 03-25-17
117 Termon 17.9% 13944 03-25-17
118 LittleBigness 17.8% 13948 03-25-17
119 SonicWinDX 17.7% 13971 03-25-17
120 FoxBoy 17.6% 13991 03-25-17
121 Drakodan 16.8% 14118 03-25-17
122 Sonic Singularity 15.8% 14289 03-25-17
123 Pokemonmaster888 15.6% 14325 03-25-17
124 SilverSonic 14.5% 14507 03-25-17
125 MPit08 14.4% 14526 03-25-17
126 WeegeeZV 14.3% 14555 03-25-17
127 Mo Player Banned 14.0% 14595 03-25-17
128 koinu93 14.0% 14606 03-25-17
129 Cod4Scopes 13.7% 14652 03-25-17
130 HyperSonic64 13.6% 14673 03-25-17
131 booo95 13.4% 14696 03-25-17
132 Jerzia 13.4% 14701 03-25-17
133 paulie9990 13.2% 14728 03-25-17
134 Chawkk 13.2% 14739 03-25-17
135 Hunters13 13.0% 14761 03-25-17
136 SuperSonic101 13.0% 14765 03-25-17
137 Maxinfamily 12.9% 14790 03-25-17
138 Kanimayo_Jp 12.6% 14835 03-25-17
139 LilZero 12.6% 14845 03-25-17
140 BrokenArthritis 12.5% 14858 03-25-17
141 PsyBorg 12.4% 14869 03-25-17
142 Flying Fox 12.4% 14874 03-25-17
143 Therio 12.1% 14929 03-25-17
144 sonicspeed 11.8% 14972 03-25-17
145 douglas 11.7% 14994 03-25-17
146 Matt_TY 11.4% 15047 03-25-17
147 thewaytodawnnn 11.4% 15048 03-25-17
148 Cooljay 10.8% 15145 03-25-17
149 SuperBlitzCraig 10.8% 15151 03-25-17
150 joecoolgames 10.7% 15161 03-25-17
151 SeaWolf 10.6% 15176 03-25-17
152 videogamer1014 10.4% 15210 03-25-17
153 N 10.3% 15226 03-25-17
154 AC-Tygo 10.1% 15254 03-25-17
155 welshmoose05 10.1% 15266 03-25-17
156 OddCook 9.9% 15298 03-25-17
157 TFEC Headshot 9.9% 15304 03-25-17
158 crazy1993 9.8% 15316 03-25-17
159 Mcshuggets 9.7% 15337 03-25-17
160 imazor017 9.3% 15397 03-25-17
161 niscool 9.3% 15398 03-25-17
162 Mariobutch 9.2% 15408 03-25-17
163 nuckrieg 9.2% 15421 03-25-17
164 SonicAD 9.1% 15435 03-25-17
165 Shadowthegreat 9.0% 15454 03-25-17
166 SirTobbii 9.0% 15455 03-25-17
167 superjupi 8.9% 15460 03-25-17
168 Powerjohn25 8.7% 15503 03-25-17
169 sonamyfan666 8.6% 15509 03-25-17
170 iarebored 8.6% 15521 03-25-17
171 SaviourDC 8.5% 15531 03-25-17
172 SonicKnuckles 8.5% 15535 03-25-17
173 Werey 8.2% 15579 03-25-17
174 adf 8.1% 15594 03-25-17
175 Megaman EXE565 7.9% 15634 03-25-17
176 ArcticDragon 7.6% 15679 03-25-17
177 Platformer 7.5% 15700 03-25-17
178 timpkmn89 7.4% 15721 03-25-17
179 FocusSight64 7.3% 15733 03-25-17
180 Swift Hobo 7.3% 15735 03-25-17
181 wheatrich 7.2% 15748 03-25-17
182 Rickyman48 7.1% 15767 03-25-17
183 KitsuneYamaro 6.9% 15799 03-25-17
184 Triseena 6.7% 15835 03-25-17
185 SonataSpinDash 6.6% 15850 03-25-17
186 CyberShadow 6.5% 15877 03-25-17
186 Starlight Sable 6.5% 15877 03-25-17
188 slade23 6.5% 15880 03-25-17
189 dShadow 6.4% 15885 03-25-17
190 Destroyer121121 6.4% 15893 03-25-17
191 IsisDazs 6.3% 15907 03-25-17
192 BlankTH 6.1% 15946 03-25-17
193 Monkeh 6.0% 15966 03-25-17
194 Badlex727 5.9% 15968 03-25-17
195 SonicU260 5.8% 15997 03-25-17
196 Richied 5.7% 16002 03-25-17
197 DaDude 5.7% 16014 03-25-17
198 Vicklaw 5.6% 16023 03-25-17
199 sonicd5 5.5% 16036 03-25-17
200 Zip 5.5% 16041 03-25-17
201 VeritasDL 5.2% 16097 03-25-17
202 ALundstrom10 5.1% 16104 03-25-17
203 tal39h 5.1% 16108 03-25-17
204 Kirbymon30 5.1% 16116 03-25-17
205 soniccoloursunleashed 4.9% 16144 03-25-17
206 Drflash55 4.9% 16150 03-25-17
207 Bass 4.8% 16167 03-25-17
208 neaolas 4.7% 16183 03-25-17
209 Yish 4.7% 16185 03-25-17
210 zapp 4.6% 16194 03-25-17
211 UninspiredUsername 4.6% 16199 03-25-17
212 superiorsonic 4.6% 16204 03-25-17
213 Sonicsuperstar1 4.5% 16209 03-25-17
214 gamefreak1292 4.5% 16220 03-25-17
215 Chaos_Overlord 4.2% 16272 03-25-17
216 TakaRikka 4.0% 16290 03-25-17
217 Valfore 4.0% 16300 03-25-17
218 ShinigamiMachine 3.8% 16331 03-25-17
219 Regano1000 3.7% 16342 03-25-17
220 MK 3.6% 16363 03-25-17
221 Ace747 3.6% 16372 03-25-17
222 HHNNBBHHN 3.2% 16440 03-25-17
222 Illidan 3.2% 16440 03-25-17
224 Venick409 3.1% 16447 03-25-17
225 Brian_pso 3.1% 16452 03-25-17
225 nman36 3.1% 16452 03-25-17
227 Sithwarrior26 3.1% 16453 03-25-17
228 Egor305 2.9% 16477 03-25-17
229 ingx24 2.9% 16479 03-25-17
230 TheChaosEmeraIds 2.9% 16485 03-25-17
231 Nickson98 2.9% 16490 03-25-17
232 SkyBon 2.9% 16491 03-25-17
233 dekki1234 2.8% 16497 03-25-17
234 Fozer 2.8% 16503 03-25-17
235 FSSRandomvids 2.8% 16508 03-25-17
236 Colomb_30 2.7% 16514 03-25-17
237 Aiko 2.7% 16520 03-25-17
238 sonic29887 2.7% 16524 03-25-17
239 TheUltraBlur 2.6% 16532 03-25-17
240 1stKirbyever 2.6% 16537 03-25-17
241 TimTH 2.5% 16545 03-25-17
242 Th4tN1nj4Turtl3 2.4% 16575 03-25-17
243 Cort_pso 2.3% 16584 03-25-17
244 ieatatsonic 2.3% 16592 03-25-17
245 Doom-9 2.3% 16594 03-25-17
246 Mariosonic15 2.3% 16595 03-25-17
247 MStitomix 2.1% 16616 03-25-17
248 HermitHelmet 2.1% 16618 03-25-17
249 Artie 2.0% 16632 03-25-17
250 Got4n 2.0% 16633 03-25-17
251 SuperSonic71087 2.0% 16635 03-25-17
252 Jose_15 2.0% 16645 03-25-17
253 Questionguy555 1.9% 16650 03-25-17
254 SuperSonicfan9595 1.9% 16662 03-25-17
255 djmat 1.9% 16663 03-25-17
256 sonicandamy Player Banned 1.7% 16682 03-25-17
257 LancexExWx 1.7% 16693 03-25-17
257 Paixii 1.7% 16693 03-25-17
259 son1cgu1tar 1.7% 16697 03-25-17
260 Heroes_Hater 1.6% 16699 03-25-17
261 BallzeH 1.6% 16711 03-25-17
262 Mankster101 1.5% 16716 03-25-17
263 BecauseWarAnvil 1.5% 16719 03-25-17
263 Jamixesa 1.5% 16719 03-25-17
265 Crydio 1.5% 16730 03-25-17
266 SpiritDragon1995 1.4% 16734 03-25-17
267 Shanekilz 1.4% 16736 03-25-17
268 ReuelBrony 1.4% 16743 03-25-17
269 MarewBFN 1.3% 16749 03-25-17
270 stanski 1.3% 16751 03-25-17
271 Sonique Hedgehog 1.3% 16754 03-25-17
272 p0ker 1.3% 16765 03-25-17
273 Blue Infamy 1.2% 16768 03-25-17
274 ErrortheCucco 1.2% 16779 03-25-17
275 Rikum22 1.2% 16782 03-25-17
276 Arthas 1.1% 16783 03-25-17
277 sonic1001 1.1% 16790 03-25-17
278 AJSIV 1.1% 16796 03-25-17
278 WingedInsignia 1.1% 16796 03-25-17
280 syco1098 1.1% 16797 03-25-17
281 Sonic the Hedgehod16 1.1% 16799 03-25-17
282 Calfd 1.0% 16808 03-25-17
282 sonicfan9 1.0% 16808 03-25-17
284 BlackArmsShadow 0.9% 16819 03-25-17
285 themachoman202 0.9% 16821 03-25-17
286 shadowblast63 Player Banned 0.9% 16829 03-25-17
287 Greham Adelphis 0.9% 16830 03-25-17
288 darkstarblaze 0.9% 16831 03-25-17
288 Fivavoa 0.9% 16831 03-25-17
290 Mr. Jones 0.9% 16832 03-25-17
291 Ben1502 0.8% 16834 03-25-17
291 MastaToken 0.8% 16834 03-25-17
293 arcfx1985 0.8% 16835 03-25-17
293 TommyeAsY 0.8% 16835 03-25-17
295 ptorflaxendrosis 0.8% 16836 03-25-17
296 FlandreScarlet9999vr 0.8% 16841 03-25-17
297 Gvozdevik 0.8% 16842 03-25-17
298 Knuckles 0.8% 16844 03-25-17
299 Zeldocto 0.8% 16845 03-25-17
300 BeeAwwb 0.8% 16849 03-25-17
301 KaM Mark MaK 0.8% 16850 03-25-17
302 ShadouZaHejjihoggu 0.7% 16856 03-25-17
303 Sonic The Star 0.7% 16864 03-25-17
303 Sonic62 0.7% 16864 03-25-17
305 darkersupershadic 0.7% 16865 03-25-17
306 Sarger001 0.6% 16868 03-25-17
307 dragondragon18 0.6% 16870 03-25-17
307 Sogeking 0.6% 16870 03-25-17
309 Grady219 0.6% 16871 03-25-17
309 Shadygamerfreak 0.6% 16871 03-25-17
311 SonicK100 0.6% 16872 03-25-17
312 Jawaah 0.6% 16877 03-25-17
313 Antek 0.6% 16881 03-25-17
314 Klaus 0.6% 16883 03-25-17
315 SilverK 0.5% 16885 03-25-17
316 BioShadow 0.5% 16886 03-25-17
317 SpinDashMaster 0.5% 16890 03-25-17
318 Videogamer123 0.5% 16893 03-25-17
319 oTaiIilLsS 0.4% 16906 03-25-17
320 isaihtb11 0.4% 16908 03-25-17
321 OhNoes! 0.4% 16910 03-25-17
322 zaktu40 0.4% 16911 03-25-17
323 S-MS32X-S 0.4% 16913 03-25-17
324 gaara1234 0.4% 16914 03-25-17
324 Mad Andy 0.4% 16914 03-25-17
326 gamed00d 0.4% 16918 03-25-17
327 Mister_Slick 0.3% 16925 03-25-17
328 Sonic06Fan 0.3% 16928 03-25-17
329 Rush Hero 0.3% 16930 03-25-17
330 SonicMega167 0.3% 16935 03-25-17
331 Iwannabelink 0.2% 16937 03-25-17
332 sonknuck23 0.2% 16939 03-25-17
333 DanielTheFalcon 0.2% 16949 03-25-17
333 gamer1245 0.2% 16949 03-25-17
335 Burningskull123 0.1% 16954 03-25-17
336 Sonicontherun 0.1% 16965 03-25-17
337 Lil_Dude 0.1% 16969 03-25-17
338 antiwwe 0.0% 16971 03-25-17
339 Genuine Hedgehog 0.0% 16975 03-25-17
340 Cbwade15 0.0% 16976 03-25-17
341 Tyrouble 0.0% 16979 03-25-17
342 MegabombBlade 0.0% 16986 03-25-17
342 neji_hyuuga 0.0% 16986 03-25-17
342 Over 0.0% 16986 03-25-17
342 sdj6707 Player Banned 0.0% 16986 03-25-17
342 Tran Sonic Fan Player Banned 0.0% 16986 03-25-17

This page is using the New Data Table System. [FUTURE]

Game ID: 3 | Category ID: 10
Hits: 3,934 | Hits This Month: 47 | DB Calls: 23 | Mem Usage: 5.47 MB | Time: 0.15s | Printable

The Sonic Center v3.9
Copyright 2003-2011 by The Sonic Center Team.